Time;durP1;ratioP1;P1;durP2;ratioP2;P2;SDS_P1;SDS_P2;PMS_P1;PMS_P2;Temp;Humidity;BMP_temperature;BMP_pressure;BME280_temperature;BME280_humidity;BME280_pressure;Samples;Min_cycle;Max_cycle;Signal;HPM_P1;HPM_P2
2023/09/19 00:01:11;;;;;;;;;;;26.60;73.70;;;;;;5054162;28;20329;-74
2023/09/19 00:03:37;;;;;;;;;;;26.60;73.10;;;;;;5070966;28;19939;-74
2023/09/19 00:06:04;;;;;;;;;;;26.60;71.10;;;;;;5070552;28;20019;-73
2023/09/19 00:08:33;;;;;;;;;;;26.70;69.30;;;;;;5070545;28;19916;-74
2023/09/19 00:11:05;;;;;;;;;;;26.80;69.20;;;;;;5070792;28;19960;-74
2023/09/19 00:13:32;;;;;;;;;;;26.70;71.30;;;;;;5070454;28;20380;-74
2023/09/19 00:15:58;;;;;;;;;;;26.60;72.80;;;;;;5052313;28;20356;-74
2023/09/19 00:18:29;;;;;;;;;;;26.60;74.50;;;;;;5070791;28;19958;-75
2023/09/19 00:20:58;;;;;;;;;;;26.50;74.40;;;;;;5052408;28;20083;-74
2023/09/19 00:23:24;;;;;;;;;;;26.50;74.70;;;;;;5052341;28;20025;-74
2023/09/19 00:25:50;;;;;;;;;;;26.40;73.70;;;;;;5070115;28;20387;-74
2023/09/19 00:28:18;;;;;;;;;;;26.40;72.30;;;;;;5070401;28;19991;-74
2023/09/19 00:30:44;;;;;;;;;;;26.40;73.00;;;;;;5069966;28;19915;-74
2023/09/19 00:33:15;;;;;;;;;;;26.40;73.00;;;;;;5070070;28;19908;-74
2023/09/19 00:35:54;;;;;;;;;;;26.40;69.60;;;;;;5070059;28;19945;-74
2023/09/19 00:38:22;;;;;;;;;;;26.50;68.50;;;;;;5070264;28;19924;-73
2023/09/19 00:40:48;;;;;;;;;;;26.50;67.00;;;;;;5069799;28;20079;-74
2023/09/19 00:43:14;;;;;;;;;;;26.50;65.50;;;;;;5069858;28;19908;-75
2023/09/19 00:45:47;;;;;;;;;;;26.60;65.60;;;;;;5051820;28;19908;-74
2023/09/19 00:48:14;;;;;;;;;;;26.60;65.80;;;;;;5070343;28;19947;-74
2023/09/19 00:50:42;;;;;;;;;;;26.70;60.40;;;;;;5069981;28;20245;-75
2023/09/19 00:53:13;;;;;;;;;;;26.90;60.30;;;;;;5069926;28;19908;-75
2023/09/19 00:55:39;;;;;;;;;;;26.90;59.30;;;;;;5051763;28;20372;-74
2023/09/19 00:58:06;;;;;;;;;;;27.00;58.50;;;;;;5069922;28;19909;-75
2023/09/19 01:00:33;;;;;;;;;;;27.00;57.80;;;;;;5069643;28;20251;-75
2023/09/19 01:03:01;;;;;;;;;;;27.00;58.40;;;;;;5070285;28;20340;-75
2023/09/19 01:05:27;;;;;;;;;;;26.90;59.30;;;;;;5054246;28;19919;-74
2023/09/19 01:07:53;;;;;;;;;;;26.80;59.10;;;;;;5073431;28;19908;-74
2023/09/19 01:10:20;;;;;;;;;;;26.80;59.90;;;;;;5073345;28;20010;-74
2023/09/19 01:13:05;;;;;;;;;;;26.80;60.80;;;;;;5073462;28;19915;-73
2023/09/19 01:15:47;;;;;;;;;;;26.80;60.00;;;;;;5073109;28;19992;-74
2023/09/19 01:18:27;;;;;;;;;;;26.80;58.30;;;;;;5055244;28;19908;-75
2023/09/19 01:21:09;;;;;;;;;;;26.70;59.50;;;;;;5073510;28;20275;-75
2023/09/19 01:23:38;;;;;;;;;;;26.80;56.30;;;;;;5073237;28;19908;-74
2023/09/19 01:26:06;;;;;;;;;;;26.90;55.70;;;;;;5073685;28;20312;-75
2023/09/19 01:28:36;;;;;;;;;;;26.90;54.70;;;;;;5072915;28;19951;-75
2023/09/19 01:31:03;;;;;;;;;;;27.00;54.20;;;;;;5073525;28;20221;-75
2023/09/19 01:33:57;;;;;;;;;;;27.10;54.20;;;;;;5055316;28;19920;-74
2023/09/19 01:36:23;;;;;;;;;;;27.10;54.30;;;;;;5073124;28;20353;-75
2023/09/19 01:38:50;;;;;;;;;;;27.10;54.00;;;;;;5072836;28;19916;-74
2023/09/19 01:41:19;;;;;;;;;;;27.10;54.80;;;;;;5054726;28;19995;-75
2023/09/19 01:43:46;;;;;;;;;;;27.00;57.20;;;;;;5072891;28;19908;-74
2023/09/19 01:46:27;;;;;;;;;;;27.00;57.20;;;;;;5073293;28;19913;-75
2023/09/19 01:49:20;;;;;;;;;;;26.90;58.20;;;;;;5072911;28;19995;-74
2023/09/19 01:52:02;;;;;;;;;;;26.80;58.10;;;;;;5073048;28;20419;-74
2023/09/19 01:54:31;;;;;;;;;;;26.90;56.40;;;;;;5073058;28;19957;-75
2023/09/19 01:57:01;;;;;;;;;;;26.90;56.20;;;;;;5072681;28;19916;-75
2023/09/19 01:59:32;;;;;;;;;;;26.90;56.20;;;;;;5072416;28;19932;-75
2023/09/19 02:01:58;;;;;;;;;;;26.90;56.30;;;;;;5054499;28;19912;-75
2023/09/19 02:04:23;;;;;;;;;;;26.90;57.10;;;;;;5072497;28;19994;-75
2023/09/19 02:06:49;;;;;;;;;;;26.80;57.70;;;;;;5072639;28;20285;-74
2023/09/19 02:09:15;;;;;;;;;;;26.80;58.80;;;;;;5072302;28;19940;-74
2023/09/19 02:11:41;;;;;;;;;;;26.80;58.10;;;;;;5054511;28;19909;-74
2023/09/19 02:14:08;;;;;;;;;;;26.80;58.20;;;;;;5072158;28;19915;-74
2023/09/19 02:16:37;;;;;;;;;;;26.70;58.20;;;;;;5071255;28;19962;-75
2023/09/19 02:19:05;;;;;;;;;;;26.70;58.30;;;;;;5053836;28;19930;-74
2023/09/19 02:21:31;;;;;;;;;;;26.70;57.50;;;;;;5072000;28;19969;-74
2023/09/19 02:23:57;;;;;;;;;;;26.70;56.70;;;;;;5072165;28;20305;-75
2023/09/19 02:26:23;;;;;;;;;;;26.70;55.50;;;;;;5071813;28;20020;-73
2023/09/19 02:28:49;;;;;;;;;;;26.80;55.50;;;;;;5071249;28;19991;-73
2023/09/19 02:31:16;;;;;;;;;;;26.80;55.60;;;;;;5071403;28;20000;-74
2023/09/19 02:33:43;;;;;;;;;;;26.90;55.90;;;;;;5071819;28;19908;-73
2023/09/19 02:36:09;;;;;;;;;;;26.90;55.10;;;;;;5071407;28;19913;-73
2023/09/19 02:38:35;;;;;;;;;;;26.90;54.20;;;;;;5071658;28;19916;-74
2023/09/19 02:41:01;;;;;;;;;;;27.00;54.10;;;;;;5071683;28;20222;-74
2023/09/19 02:43:27;;;;;;;;;;;26.90;54.00;;;;;;5071566;28;19909;-73
2023/09/19 02:45:56;;;;;;;;;;;27.00;54.20;;;;;;5071576;28;19931;-74
2023/09/19 02:48:22;;;;;;;;;;;27.00;55.40;;;;;;5071729;28;20024;-74
2023/09/19 02:50:52;;;;;;;;;;;27.10;56.20;;;;;;5053256;28;20352;-73
2023/09/19 02:53:18;;;;;;;;;;;27.10;56.80;;;;;;5071649;28;19909;-74
2023/09/19 02:55:44;;;;;;;;;;;27.10;57.50;;;;;;5071957;28;19931;-74
2023/09/19 02:58:14;;;;;;;;;;;27.00;57.70;;;;;;5072174;28;20210;-74
2023/09/19 03:00:41;;;;;;;;;;;27.00;57.70;;;;;;5072106;28;20334;-74
2023/09/19 03:03:08;;;;;;;;;;;27.00;58.20;;;;;;5072124;28;19963;-74
2023/09/19 03:05:34;;;;;;;;;;;27.00;60.20;;;;;;5072732;28;20225;-74
2023/09/19 03:08:03;;;;;;;;;;;27.00;59.40;;;;;;5073197;28;19954;-73
2023/09/19 03:10:30;;;;;;;;;;;27.00;56.20;;;;;;5072645;28;19931;-74
2023/09/19 03:12:57;;;;;;;;;;;27.00;55.90;;;;;;5072872;28;19915;-74
2023/09/19 03:15:22;;;;;;;;;;;27.00;55.70;;;;;;5072377;28;19908;-74
2023/09/19 03:17:49;;;;;;;;;;;26.90;55.60;;;;;;5072803;28;20481;-74
2023/09/19 03:20:17;;;;;;;;;;;26.90;56.90;;;;;;5072517;28;19927;-74
2023/09/19 03:22:43;;;;;;;;;;;26.80;57.20;;;;;;5072271;28;19991;-74
2023/09/19 03:25:11;;;;;;;;;;;26.80;56.90;;;;;;5073509;28;19920;-74
2023/09/19 03:27:37;;;;;;;;;;;26.80;55.70;;;;;;5073309;28;19908;-74
2023/09/19 03:30:08;;;;;;;;;;;26.90;56.10;;;;;;5073203;28;19934;-74
2023/09/19 03:32:35;;;;;;;;;;;26.80;56.80;;;;;;5073302;28;19969;-74
2023/09/19 03:35:02;;;;;;;;;;;26.70;56.70;;;;;;5073300;28;19943;-74
2023/09/19 03:37:27;;;;;;;;;;;26.80;56.00;;;;;;5073149;28;20003;-75
2023/09/19 03:39:53;;;;;;;;;;;26.90;55.00;;;;;;5073122;28;19967;-74
2023/09/19 03:42:25;;;;;;;;;;;27.00;55.50;;;;;;5073442;28;20452;-74
2023/09/19 03:44:52;;;;;;;;;;;27.00;55.80;;;;;;5072945;28;20395;-73
2023/09/19 03:47:18;;;;;;;;;;;27.00;57.20;;;;;;5073583;28;19908;-74
2023/09/19 03:49:44;;;;;;;;;;;27.00;56.70;;;;;;5073168;28;19908;-75
2023/09/19 03:52:11;;;;;;;;;;;27.00;55.40;;;;;;5072968;28;19909;-75
2023/09/19 03:54:37;;;;;;;;;;;27.00;55.10;;;;;;5073542;28;20406;-74
2023/09/19 03:57:04;;;;;;;;;;;27.10;55.10;;;;;;5054942;28;19948;-74
2023/09/19 03:59:29;;;;;;;;;;;27.00;55.20;;;;;;5054878;28;20238;-74
2023/09/19 04:01:57;;;;;;;;;;;27.00;55.20;;;;;;5054580;28;20009;-74
2023/09/19 04:04:24;;;;;;;;;;;27.00;55.30;;;;;;5072546;28;19962;-74
2023/09/19 04:06:53;;;;;;;;;;;27.00;55.30;;;;;;5072210;28;19916;-74
2023/09/19 04:09:19;;;;;;;;;;;27.00;55.80;;;;;;5072192;28;20356;-74
2023/09/19 04:11:45;;;;;;;;;;;27.10;54.50;;;;;;5071735;28;20434;-74
2023/09/19 04:14:11;;;;;;;;;;;27.10;53.70;;;;;;5071828;28;19915;-73
2023/09/19 04:16:38;;;;;;;;;;;27.20;53.70;;;;;;5071862;28;19920;-74
2023/09/19 04:19:05;;;;;;;;;;;27.20;53.40;;;;;;5073114;28;19923;-74
2023/09/19 04:21:31;;;;;;;;;;;27.20;53.00;;;;;;5073270;28;19908;-74
2023/09/19 04:23:57;;;;;;;;;;;27.20;53.30;;;;;;5073136;28;20357;-75
2023/09/19 04:26:23;;;;;;;;;;;27.10;53.10;;;;;;5073964;28;19923;-74
2023/09/19 04:28:49;;;;;;;;;;;27.10;53.40;;;;;;5054917;28;19920;-74
2023/09/19 04:31:16;;;;;;;;;;;27.00;53.30;;;;;;5073489;28;19915;-75
2023/09/19 04:33:43;;;;;;;;;;;27.10;51.90;;;;;;5073291;28;19912;-74
2023/09/19 04:36:09;;;;;;;;;;;27.10;53.00;;;;;;5054921;28;19978;-74
2023/09/19 04:38:35;;;;;;;;;;;27.10;54.10;;;;;;5073039;28;19991;-75
2023/09/19 04:41:01;;;;;;;;;;;27.00;53.70;;;;;;5077026;28;20378;-75
2023/09/19 04:43:28;;;;;;;;;;;27.00;53.60;;;;;;5077439;28;19962;-74
2023/09/19 04:45:55;;;;;;;;;;;26.90;53.30;;;;;;5077101;28;19916;-74
2023/09/19 04:48:23;;;;;;;;;;;26.90;53.60;;;;;;5076949;28;19916;-75
2023/09/19 04:50:49;;;;;;;;;;;26.90;53.60;;;;;;5077253;28;19913;-74
2023/09/19 04:53:15;;;;;;;;;;;26.80;53.50;;;;;;5076488;28;19916;-75
2023/09/19 04:55:41;;;;;;;;;;;26.80;53.80;;;;;;5076347;28;19916;-75
2023/09/19 04:58:07;;;;;;;;;;;26.80;53.80;;;;;;5076838;28;20249;-75
2023/09/19 05:00:35;;;;;;;;;;;26.80;54.20;;;;;;5076227;28;19970;-75
2023/09/19 05:03:00;;;;;;;;;;;26.80;53.60;;;;;;5076278;28;19950;-74
2023/09/19 05:05:26;;;;;;;;;;;26.90;52.80;;;;;;5076343;28;19912;-75
2023/09/19 05:07:55;;;;;;;;;;;26.90;52.80;;;;;;5076315;28;20279;-74
2023/09/19 05:10:21;;;;;;;;;;;26.90;53.80;;;;;;5076762;28;19909;-75
2023/09/19 05:12:48;;;;;;;;;;;26.90;53.90;;;;;;5058275;28;19935;-74
2023/09/19 05:15:19;;;;;;;;;;;26.90;54.20;;;;;;5076052;28;19909;-75
2023/09/19 05:17:50;;;;;;;;;;;26.90;54.50;;;;;;5076348;28;19992;-75
2023/09/19 05:20:29;;;;;;;;;;;26.90;54.00;;;;;;5075724;28;19992;-74
2023/09/19 05:23:12;;;;;;;;;;;26.90;54.10;;;;;;5076023;28;19909;-74
2023/09/19 05:25:39;;;;;;;;;;;26.90;54.20;;;;;;5075676;28;19983;-74
2023/09/19 05:28:05;;;;;;;;;;;26.90;55.30;;;;;;5075370;28;19909;-74
2023/09/19 05:30:32;;;;;;;;;;;26.90;55.50;;;;;;5075569;28;19908;-74
2023/09/19 05:32:58;;;;;;;;;;;27.00;55.90;;;;;;5075017;28;19999;-75
2023/09/19 05:35:24;;;;;;;;;;;27.00;57.00;;;;;;5074978;28;19909;-74
2023/09/19 05:37:50;;;;;;;;;;;27.00;57.00;;;;;;5056406;28;19924;-74
2023/09/19 05:40:17;;;;;;;;;;;27.00;57.40;;;;;;5074663;28;19916;-75
2023/09/19 05:42:43;;;;;;;;;;;27.00;57.60;;;;;;5074958;28;19928;-75
2023/09/19 05:45:13;;;;;;;;;;;27.10;58.00;;;;;;5074230;28;19912;-74
2023/09/19 05:47:45;;;;;;;;;;;27.10;58.80;;;;;;5074386;28;19909;-75
2023/09/19 05:50:11;;;;;;;;;;;27.10;59.00;;;;;;5073609;28;19909;-74
2023/09/19 05:52:39;;;;;;;;;;;27.10;59.40;;;;;;5072586;28;20352;-75
2023/09/19 05:55:06;;;;;;;;;;;27.20;59.30;;;;;;5073944;28;19952;-75
2023/09/19 05:57:32;;;;;;;;;;;27.20;58.90;;;;;;5073463;28;19920;-74
2023/09/19 05:59:58;;;;;;;;;;;27.30;59.50;;;;;;5055368;28;20309;-76
2023/09/19 06:02:26;;;;;;;;;;;27.50;59.70;;;;;;5074191;28;19913;-76
2023/09/19 06:04:55;;;;;;;;;;;27.60;58.00;;;;;;5074024;28;19908;-76
2023/09/19 06:07:26;;;;;;;;;;;27.70;58.10;;;;;;5056888;28;19912;-76
2023/09/19 06:09:53;;;;;;;;;;;27.90;57.40;;;;;;5074171;28;19908;-76
2023/09/19 06:12:19;;;;;;;;;;;28.10;56.90;;;;;;5073805;28;20258;-75
2023/09/19 06:14:45;;;;;;;;;;;28.30;56.90;;;;;;5073945;28;19909;-75
2023/09/19 06:17:11;;;;;;;;;;;28.70;57.10;;;;;;5072733;28;19908;-76
2023/09/19 06:19:36;;;;;;;;;;;29.30;56.50;;;;;;5073056;28;19916;-75
2023/09/19 06:22:03;;;;;;;;;;;30.00;55.70;;;;;;5073245;28;20261;-75
2023/09/19 06:24:29;;;;;;;;;;;30.80;56.50;;;;;;5073360;28;20289;-74
2023/09/19 06:26:55;;;;;;;;;;;31.30;55.30;;;;;;5073383;28;19908;-75
2023/09/19 06:29:23;;;;;;;;;;;31.90;54.80;;;;;;5073647;28;19909;-76
2023/09/19 06:31:48;;;;;;;;;;;32.40;54.90;;;;;;5055327;28;19909;-75
2023/09/19 06:34:18;;;;;;;;;;;32.60;55.60;;;;;;5073329;28;19909;-76
2023/09/19 06:36:44;;;;;;;;;;;32.80;55.80;;;;;;5072987;28;19967;-75
2023/09/19 06:39:10;;;;;;;;;;;33.20;54.40;;;;;;5054854;28;20320;-75
2023/09/19 06:41:41;;;;;;;;;;;33.60;53.50;;;;;;5054926;28;20349;-75
2023/09/19 06:44:07;;;;;;;;;;;34.00;53.60;;;;;;5072988;28;19909;-76
2023/09/19 06:46:34;;;;;;;;;;;34.10;52.40;;;;;;5073217;28;19913;-76
2023/09/19 06:49:06;;;;;;;;;;;34.10;51.50;;;;;;5072695;28;19912;-75
2023/09/19 06:51:34;;;;;;;;;;;34.00;52.10;;;;;;5073375;28;19908;-75
2023/09/19 06:54:01;;;;;;;;;;;34.50;52.90;;;;;;5054825;28;19917;-76
2023/09/19 06:56:27;;;;;;;;;;;35.00;51.50;;;;;;5054747;28;19912;-75
2023/09/19 06:58:54;;;;;;;;;;;34.60;50.20;;;;;;5072930;28;20423;-74
2023/09/19 07:01:20;;;;;;;;;;;35.30;50.10;;;;;;5054192;28;20031;-74
2023/09/19 07:03:46;;;;;;;;;;;34.80;48.30;;;;;;5072220;28;19916;-76
2023/09/19 07:06:12;;;;;;;;;;;34.40;47.10;;;;;;5072857;28;19908;-76
2023/09/19 07:08:38;;;;;;;;;;;34.90;47.40;;;;;;5072842;28;19916;-76
2023/09/19 07:11:06;;;;;;;;;;;35.20;46.70;;;;;;5054647;28;19958;-76
2023/09/19 07:13:32;;;;;;;;;;;35.30;47.90;;;;;;5054402;28;19912;-76
2023/09/19 07:16:01;;;;;;;;;;;35.70;48.80;;;;;;5054442;28;19908;-76
2023/09/19 07:18:27;;;;;;;;;;;35.70;48.90;;;;;;5072802;28;20206;-74
2023/09/19 07:21:01;;;;;;;;;;;35.70;49.30;;;;;;5072855;28;20344;-76
2023/09/19 07:23:26;;;;;;;;;;;35.40;51.40;;;;;;5072252;28;19909;-74
2023/09/19 07:25:56;;;;;;;;;;;35.50;51.80;;;;;;5072762;28;20263;-76
2023/09/19 07:28:22;;;;;;;;;;;35.00;50.70;;;;;;5072222;28;19916;-74
2023/09/19 07:30:48;;;;;;;;;;;35.40;51.10;;;;;;5071635;28;19908;-75
2023/09/19 07:33:14;;;;;;;;;;;35.30;52.30;;;;;;5072584;28;19999;-75
2023/09/19 07:35:40;;;;;;;;;;;35.00;53.00;;;;;;5072141;28;19936;-76
2023/09/19 07:38:06;;;;;;;;;;;35.00;52.10;;;;;;5072177;28;20356;-77
2023/09/19 07:40:38;;;;;;;;;;;34.80;53.00;;;;;;5072290;28;19950;-75
2023/09/19 07:43:06;;;;;;;;;;;34.50;52.30;;;;;;5071379;28;21624;-76
2023/09/19 07:45:32;;;;;;;;;;;34.40;51.70;;;;;;5072484;28;19928;-75
2023/09/19 07:48:00;;;;;;;;;;;34.50;52.20;;;;;;5054398;28;20272;-74
2023/09/19 07:50:26;;;;;;;;;;;34.40;52.60;;;;;;5071708;28;19959;-76
2023/09/19 07:52:52;;;;;;;;;;;34.30;52.30;;;;;;5071289;28;19962;-75
2023/09/19 07:55:19;;;;;;;;;;;33.90;53.10;;;;;;5071510;28;19908;-75
2023/09/19 07:57:46;;;;;;;;;;;33.70;53.30;;;;;;5072387;28;19908;-76
2023/09/19 08:00:12;;;;;;;;;;;33.50;52.80;;;;;;5070654;28;19916;-76
2023/09/19 08:02:41;;;;;;;;;;;33.50;53.00;;;;;;5071112;28;19959;-75
2023/09/19 08:05:11;;;;;;;;;;;33.80;54.20;;;;;;5070815;28;19999;-77
2023/09/19 08:07:37;;;;;;;;;;;33.90;54.00;;;;;;5071068;28;19993;-75
2023/09/19 08:10:04;;;;;;;;;;;34.00;55.60;;;;;;5052862;28;19952;-76
2023/09/19 08:12:30;;;;;;;;;;;34.00;52.80;;;;;;5071278;28;19912;-76
2023/09/19 08:14:56;;;;;;;;;;;34.00;51.80;;;;;;5069799;28;20249;-75
2023/09/19 08:17:22;;;;;;;;;;;34.30;50.90;;;;;;5053694;28;20007;-76
2023/09/19 08:19:52;;;;;;;;;;;34.20;49.70;;;;;;5071853;28;19913;-75
2023/09/19 08:22:19;;;;;;;;;;;34.30;50.40;;;;;;5053450;28;19908;-75
2023/09/19 08:24:46;;;;;;;;;;;34.40;51.80;;;;;;5071887;28;19908;-76
2023/09/19 08:27:12;;;;;;;;;;;34.20;51.80;;;;;;5071969;28;19909;-75
2023/09/19 08:29:38;;;;;;;;;;;34.40;52.10;;;;;;5053469;28;19917;-76
2023/09/19 08:32:04;;;;;;;;;;;34.00;52.90;;;;;;5071794;28;19909;-76
2023/09/19 08:34:32;;;;;;;;;;;34.30;52.10;;;;;;5071818;28;19912;-75
2023/09/19 08:37:00;;;;;;;;;;;33.90;55.10;;;;;;5070731;28;19974;-75
2023/09/19 08:39:26;;;;;;;;;;;33.80;57.50;;;;;;5070188;28;19928;-75
2023/09/19 08:42:01;;;;;;;;;;;33.60;59.10;;;;;;5071524;28;19915;-75
2023/09/19 08:44:30;;;;;;;;;;;33.60;59.20;;;;;;5071832;28;19951;-77
2023/09/19 08:47:01;;;;;;;;;;;34.00;60.30;;;;;;5071854;28;20222;-75
2023/09/19 08:49:29;;;;;;;;;;;33.90;61.40;;;;;;5071592;28;19951;-75
2023/09/19 08:52:01;;;;;;;;;;;34.10;62.40;;;;;;5070776;28;19909;-74
2023/09/19 08:54:29;;;;;;;;;;;34.10;62.90;;;;;;5070774;28;19966;-74
2023/09/19 08:56:56;;;;;;;;;;;33.70;64.30;;;;;;5071167;28;19920;-75
2023/09/19 08:59:26;;;;;;;;;;;34.00;65.70;;;;;;5070700;28;20289;-74
2023/09/19 09:01:53;;;;;;;;;;;34.20;66.00;;;;;;5070882;28;19908;-75
2023/09/19 09:04:20;;;;;;;;;;;34.10;70.60;;;;;;5070846;28;19916;-75
2023/09/19 09:06:48;;;;;;;;;;;33.90;71.70;;;;;;5070862;28;19995;-76
2023/09/19 09:09:17;;;;;;;;;;;34.00;72.70;;;;;;5070654;28;19931;-75
2023/09/19 09:11:43;;;;;;;;;;;34.00;72.10;;;;;;5070285;28;20387;-75
2023/09/19 09:14:09;;;;;;;;;;;34.00;73.20;;;;;;5051953;28;19947;-75
2023/09/19 09:16:35;;;;;;;;;;;34.10;73.80;;;;;;5070393;28;19958;-75
2023/09/19 09:19:01;;;;;;;;;;;34.20;73.70;;;;;;5071305;28;19920;-76
2023/09/19 09:21:28;;;;;;;;;;;33.70;75.00;;;;;;5052665;28;19916;-75
2023/09/19 09:23:54;;;;;;;;;;;33.90;74.80;;;;;;5071681;28;20276;-74
2023/09/19 09:26:38;;;;;;;;;;;33.50;74.10;;;;;;5075132;28;19908;-76
2023/09/19 09:29:04;;;;;;;;;;;33.70;72.90;;;;;;5074808;28;19962;-75
2023/09/19 09:31:30;;;;;;;;;;;33.50;72.50;;;;;;5074494;28;19916;-76
2023/09/19 09:33:57;;;;;;;;;;;33.50;73.40;;;;;;5074240;28;19916;-74
2023/09/19 09:36:36;;;;;;;;;;;33.60;75.70;;;;;;5074134;28;19927;-75
2023/09/19 09:39:15;;;;;;;;;;;33.30;78.10;;;;;;5074231;28;19962;-76
2023/09/19 09:41:41;;;;;;;;;;;33.30;80.60;;;;;;5056062;28;19953;-77
2023/09/19 09:44:17;;;;;;;;;;;33.10;81.90;;;;;;5074077;28;19985;-74
2023/09/19 09:49:27;;;;;;;;;;;33.30;82.30;;;;;;5073988;28;19909;-76
2023/09/19 09:51:59;;;;;;;;;;;33.50;84.00;;;;;;5073743;28;20411;-74
2023/09/19 09:54:34;;;;;;;;;;;33.30;87.70;;;;;;5073303;28;20003;-75
2023/09/19 09:57:23;;;;;;;;;;;33.00;87.70;;;;;;5073658;28;20004;-75
2023/09/19 10:02:40;;;;;;;;;;;32.80;90.40;;;;;;5073349;28;19916;-75
2023/09/19 10:05:21;;;;;;;;;;;33.10;90.10;;;;;;5054960;28;20284;-75
2023/09/19 10:07:53;;;;;;;;;;;33.00;91.50;;;;;;5073361;28;19915;-75
2023/09/19 10:11:02;;;;;;;;;;;33.40;93.60;;;;;;5055294;28;19908;-75
2023/09/19 10:13:30;;;;;;;;;;;33.60;93.30;;;;;;5011849;28;19917;-75
2023/09/19 10:15:58;;;;;;;;;;;33.60;94.40;;;;;;5011154;28;20008;-77
2023/09/19 10:18:25;;;;;;;;;;;33.50;95.50;;;;;;5011209;28;19909;-74
2023/09/19 10:20:51;;;;;;;;;;;33.20;95.60;;;;;;5010403;28;19965;-75
2023/09/19 10:23:22;;;;;;;;;;;33.10;95.70;;;;;;5010954;28;19921;-75
2023/09/19 10:25:48;;;;;;;;;;;33.10;96.90;;;;;;4994386;28;20390;-76
2023/09/19 10:28:16;;;;;;;;;;;33.10;97.00;;;;;;5011311;28;19909;-75
2023/09/19 10:30:48;;;;;;;;;;;33.10;97.20;;;;;;5010694;28;19972;-75
2023/09/19 10:33:15;;;;;;;;;;;33.30;97.50;;;;;;5010685;28;19993;-75
2023/09/19 10:35:45;;;;;;;;;;;33.10;97.60;;;;;;5011532;28;19910;-76
2023/09/19 10:38:33;;;;;;;;;;;32.90;99.40;;;;;;5009673;28;19925;-75
2023/09/19 10:41:00;;;;;;;;;;;32.90;99.80;;;;;;5011001;28;19976;-75
2023/09/19 10:43:30;;;;;;;;;;;33.20;97.80;;;;;;5010937;28;20370;-74
2023/09/19 10:46:00;;;;;;;;;;;33.30;96.30;;;;;;5010692;28;20381;-75
2023/09/19 10:48:28;;;;;;;;;;;33.20;97.30;;;;;;5011553;28;19917;-74
2023/09/19 10:51:13;;;;;;;;;;;33.00;98.90;;;;;;5034706;28;19986;-77
2023/09/19 10:53:47;;;;;;;;;;;32.70;99.90;;;;;;5052381;28;20015;-75
2023/09/19 10:56:18;;;;;;;;;;;32.80;99.90;;;;;;5034344;28;20065;-75
2023/09/19 10:58:44;;;;;;;;;;;32.40;99.90;;;;;;5034680;28;20071;-75
2023/09/19 11:01:15;;;;;;;;;;;32.50;99.90;;;;;;5052099;28;19957;-76
2023/09/19 11:03:44;;;;;;;;;;;32.60;99.90;;;;;;5034045;28;19996;-75
2023/09/19 11:06:15;;;;;;;;;;;32.60;99.90;;;;;;5052154;28;19913;-75
2023/09/19 11:08:51;;;;;;;;;;;32.70;99.90;;;;;;5034530;28;19909;-74
2023/09/19 11:11:35;;;;;;;;;;;33.00;99.90;;;;;;5052755;28;19913;-75
2023/09/19 11:14:34;;;;;;;;;;;32.80;99.90;;;;;;5052440;28;19915;-74
2023/09/19 11:17:07;;;;;;;;;;;32.60;99.90;;;;;;4990871;28;19910;-75
2023/09/19 11:19:53;;;;;;;;;;;32.80;99.90;;;;;;4992243;28;19924;-74
2023/09/19 11:22:19;;;;;;;;;;;33.10;99.90;;;;;;5002242;28;20003;-76
2023/09/19 11:24:45;;;;;;;;;;;32.70;99.90;;;;;;5011323;28;20017;-75
2023/09/19 11:27:14;;;;;;;;;;;32.60;99.90;;;;;;5011727;28;20034;-75
2023/09/19 11:29:40;;;;;;;;;;;32.70;99.90;;;;;;5011256;28;19909;-75
2023/09/19 11:32:06;;;;;;;;;;;32.60;99.90;;;;;;4994646;28;19920;-75
2023/09/19 11:34:41;;;;;;;;;;;32.50;99.90;;;;;;5011356;28;19913;-75
2023/09/19 11:37:11;;;;;;;;;;;32.40;99.90;;;;;;5010748;28;19917;-76
2023/09/19 11:39:38;;;;;;;;;;;32.30;99.90;;;;;;5010960;28;19918;-75
2023/09/19 11:42:23;;;;;;;;;;;32.20;99.90;;;;;;5011205;28;19909;-76
2023/09/19 11:44:51;;;;;;;;;;;32.50;99.90;;;;;;5010839;28;19909;-75
2023/09/19 11:47:18;;;;;;;;;;;32.90;99.90;;;;;;5011217;28;20314;-75
2023/09/19 11:49:45;;;;;;;;;;;33.00;99.90;;;;;;5010118;28;19920;-75
2023/09/19 11:52:13;;;;;;;;;;;32.90;99.90;;;;;;5025047;28;19994;-76
2023/09/19 11:54:41;;;;;;;;;;;32.90;99.90;;;;;;5052606;28;19909;-76
2023/09/19 11:57:07;;;;;;;;;;;33.00;99.90;;;;;;5052623;28;20053;-75
2023/09/19 11:59:33;;;;;;;;;;;32.80;99.90;;;;;;5053057;28;19923;-75
2023/09/19 12:02:08;;;;;;;;;;;32.90;99.90;;;;;;5052337;28;19909;-75
2023/09/19 12:04:38;;;;;;;;;;;33.10;99.90;;;;;;5053187;28;20003;-77
2023/09/19 12:07:10;;;;;;;;;;;32.80;99.90;;;;;;5034884;28;20361;-76
2023/09/19 12:09:38;;;;;;;;;;;33.00;99.90;;;;;;5053373;28;20012;-75
2023/09/19 12:12:04;;;;;;;;;;;33.00;99.90;;;;;;5052897;28;19912;-75
2023/09/19 12:14:30;;;;;;;;;;;33.00;99.90;;;;;;5052947;28;19919;-75
2023/09/19 12:16:57;;;;;;;;;;;32.80;99.90;;;;;;5052582;28;19961;-75
2023/09/19 12:19:23;;;;;;;;;;;32.70;99.90;;;;;;5035221;28;19913;-75
2023/09/19 12:21:57;;;;;;;;;;;32.80;99.90;;;;;;5054655;28;19920;-77
2023/09/19 12:24:26;;;;;;;;;;;32.40;99.90;;;;;;5072431;28;19909;-76
2023/09/19 12:26:53;;;;;;;;;;;32.50;99.90;;;;;;5072464;28;19909;-75
2023/09/19 12:29:24;;;;;;;;;;;32.60;99.90;;;;;;5054314;28;20344;-74
2023/09/19 12:32:03;;;;;;;;;;;32.70;99.90;;;;;;5072344;28;20275;-75
2023/09/19 12:34:35;;;;;;;;;;;32.80;99.90;;;;;;5054271;28;20424;-75
2023/09/19 12:37:22;;;;;;;;;;;33.00;99.90;;;;;;5072276;28;19920;-75
2023/09/19 12:39:50;;;;;;;;;;;32.90;99.90;;;;;;5054385;28;19916;-75
2023/09/19 12:42:17;;;;;;;;;;;33.00;99.90;;;;;;5072259;28;19909;-75
2023/09/19 12:44:44;;;;;;;;;;;32.70;99.90;;;;;;5072417;28;20145;-76
2023/09/19 12:47:11;;;;;;;;;;;32.70;99.90;;;;;;5072197;28;19966;-76
2023/09/19 12:49:57;;;;;;;;;;;32.90;99.90;;;;;;5072191;28;19908;-76
2023/09/19 12:52:25;;;;;;;;;;;33.10;99.90;;;;;;5071769;28;19908;-75
2023/09/19 12:54:51;;;;;;;;;;;32.90;99.90;;;;;;5072269;28;20236;-76
2023/09/19 12:57:25;;;;;;;;;;;33.00;99.90;;;;;;5071855;28;19916;-76
2023/09/19 12:59:55;;;;;;;;;;;33.00;99.90;;;;;;5071673;28;19921;-76
2023/09/19 13:02:23;;;;;;;;;;;32.90;99.90;;;;;;5075618;28;20003;-76
2023/09/19 13:04:53;;;;;;;;;;;32.60;99.90;;;;;;5075523;28;20020;-77
2023/09/19 13:07:37;;;;;;;;;;;32.40;99.90;;;;;;5075523;28;20364;-75
2023/09/19 13:10:08;;;;;;;;;;;32.30;99.90;;;;;;5075402;28;19912;-75
2023/09/19 13:12:36;;;;;;;;;;;32.60;99.90;;;;;;5075598;28;20071;-76
2023/09/19 13:15:13;;;;;;;;;;;32.70;99.90;;;;;;5075297;28;19916;-76
2023/09/19 13:17:50;;;;;;;;;;;32.60;99.90;;;;;;5076125;28;19908;-76
2023/09/19 13:20:29;;;;;;;;;;;32.60;99.90;;;;;;5057641;28;20407;-76
2023/09/19 13:22:59;;;;;;;;;;;32.90;99.90;;;;;;5075424;28;19932;-76
2023/09/19 13:25:27;;;;;;;;;;;32.90;99.90;;;;;;5076244;28;20372;-75
2023/09/19 13:27:55;;;;;;;;;;;32.80;99.90;;;;;;5057564;28;19962;-75
2023/09/19 13:30:23;;;;;;;;;;;32.70;99.90;;;;;;5057275;28;20031;-75
2023/09/19 13:32:49;;;;;;;;;;;32.40;99.90;;;;;;5075435;28;19915;-76
2023/09/19 13:35:15;;;;;;;;;;;32.30;99.90;;;;;;5075610;28;19912;-75
2023/09/19 13:37:42;;;;;;;;;;;32.60;99.90;;;;;;5075127;28;19928;-76
2023/09/19 13:40:08;;;;;;;;;;;32.50;99.90;;;;;;5075904;28;19934;-75
2023/09/19 13:42:36;;;;;;;;;;;32.50;99.90;;;;;;5075337;28;19956;-75
2023/09/19 13:45:04;;;;;;;;;;;32.20;99.90;;;;;;5075238;28;20422;-75
2023/09/19 13:47:30;;;;;;;;;;;32.00;99.90;;;;;;5056745;28;20003;-75
2023/09/19 13:49:56;;;;;;;;;;;32.20;99.90;;;;;;5074968;28;20369;-75
2023/09/19 13:52:23;;;;;;;;;;;32.00;99.90;;;;;;5074897;28;20374;-76
2023/09/19 13:54:50;;;;;;;;;;;31.90;99.90;;;;;;5075331;28;19984;-75
2023/09/19 13:57:16;;;;;;;;;;;32.00;99.90;;;;;;5075317;28;19912;-76
2023/09/19 13:59:42;;;;;;;;;;;31.90;99.90;;;;;;5074922;28;20359;-77
2023/09/19 14:02:08;;;;;;;;;;;31.90;99.90;;;;;;5074772;28;19991;-76
2023/09/19 14:04:37;;;;;;;;;;;32.00;99.90;;;;;;5056791;28;20368;-75
2023/09/19 14:07:03;;;;;;;;;;;31.90;99.90;;;;;;5074709;28;19915;-75
2023/09/19 14:09:29;;;;;;;;;;;31.90;99.90;;;;;;5074513;28;19915;-75
2023/09/19 14:11:55;;;;;;;;;;;31.80;99.90;;;;;;5073572;28;20392;-75
2023/09/19 14:14:21;;;;;;;;;;;31.90;99.90;;;;;;5074481;28;19919;-75
2023/09/19 14:16:47;;;;;;;;;;;32.20;99.90;;;;;;5074554;28;19908;-76
2023/09/19 14:19:15;;;;;;;;;;;32.00;99.90;;;;;;5074413;28;20272;-74
2023/09/19 14:21:40;;;;;;;;;;;31.90;99.90;;;;;;5074259;28;20036;-75
2023/09/19 14:24:09;;;;;;;;;;;31.90;99.90;;;;;;5074374;28;19940;-75
2023/09/19 14:26:36;;;;;;;;;;;32.00;99.90;;;;;;5074674;28;19915;-75
2023/09/19 14:29:02;;;;;;;;;;;32.00;99.90;;;;;;5074251;28;19919;-75
2023/09/19 14:31:28;;;;;;;;;;;31.80;99.90;;;;;;5055924;28;19962;-76